Time;durP1;ratioP1;P1;durP2;ratioP2;P2;SDS_P1;SDS_P2;PMS_P1;PMS_P2;Temp;Humidity;BMP_temperature;BMP_pressure;BME280_temperature;BME280_humidity;BME280_pressure;Samples;Min_cycle;Max_cycle;Signal;HPM_P1;HPM_P2
2022/10/03 00:01:31;;;;;;;9.03;8.73;;;;;;;10.67;92.10;92852.16;5128804;28;20224;-78
2022/10/03 00:04:18;;;;;;;8.77;8.37;;;;;;;10.62;92.41;92844.38;5126942;28;20235;-79
2022/10/03 00:07:16;;;;;;;9.03;8.60;;;;;;;10.69;91.77;92844.06;5127605;28;20183;-79
2022/10/03 00:10:00;;;;;;;8.33;7.83;;;;;;;10.52;93.16;92830.63;5105687;28;20199;-79
2022/10/03 00:12:53;;;;;;;8.07;7.77;;;;;;;10.23;95.52;92838.38;5126882;28;20240;-79
2022/10/03 00:15:32;;;;;;;9.43;8.93;;;;;;;10.52;92.86;92820.19;5144978;28;20204;-79
2022/10/03 00:18:11;;;;;;;9.07;8.57;;;;;;;10.32;95.24;92815.84;5126146;28;20235;-78
2022/10/03 00:20:36;;;;;;;9.30;8.87;;;;;;;10.21;96.01;92811.00;5128924;28;20195;-78
2022/10/03 00:23:11;;;;;;;9.07;8.57;;;;;;;10.40;95.37;92804.06;5127122;28;20300;-80
2022/10/03 00:26:25;;;;;;;9.47;8.93;;;;;;;10.43;95.32;92795.72;5127739;28;20231;-80
2022/10/03 00:28:54;;;;;;;8.37;8.07;;;;;;;10.48;94.32;92780.78;5128479;28;20223;-78
2022/10/03 00:31:46;;;;;;;8.70;8.30;;;;;;;10.34;96.46;92798.09;5127108;28;20177;-78
2022/10/03 00:34:18;;;;;;;7.83;7.53;;;;;;;10.25;96.69;92786.69;5094110;28;20245;-79
2022/10/03 00:37:24;;;;;;;9.60;9.20;;;;;;;10.24;96.41;92798.16;5127859;28;20186;-80
2022/10/03 00:39:49;;;;;;;9.33;8.93;;;;;;;10.30;96.82;92801.53;5106337;28;20189;-78
2022/10/03 00:42:46;;;;;;;9.00;8.60;;;;;;;10.22;96.56;92804.72;5124541;28;20233;-77
2022/10/03 00:45:34;;;;;;;9.40;9.00;;;;;;;10.03;97.60;92816.78;5129332;28;20251;-77
2022/10/03 00:48:19;;;;;;;8.80;8.50;;;;;;;9.97;98.04;92797.81;5125151;28;20230;-77
2022/10/03 00:51:17;;;;;;;8.77;8.33;;;;;;;10.32;97.05;92815.84;5128651;28;20196;-77
2022/10/03 00:54:01;;;;;;;9.27;8.77;;;;;;;10.24;97.20;92808.59;5111457;28;20282;-77
2022/10/03 00:56:34;;;;;;;8.83;8.43;;;;;;;10.19;97.62;92815.69;5130662;28;20269;-77
2022/10/03 00:59:32;;;;;;;9.60;9.20;;;;;;;10.17;97.25;92812.56;5128372;28;20817;-77
2022/10/03 01:02:16;;;;;;;9.23;8.63;;;;;;;10.03;97.87;92804.53;5123281;27;20322;-77
2022/10/03 01:04:56;;;;;;;10.30;9.03;;;;;;;10.01;98.93;92798.81;5132641;28;20211;-77
2022/10/03 01:08:11;;;;;;;9.23;8.83;;;;;;;9.97;98.79;92789.97;5131292;27;20218;-77
2022/10/03 01:10:43;;;;;;;9.10;8.80;;;;;;;10.07;98.83;92804.78;5108325;28;20234;-77
2022/10/03 01:13:31;;;;;;;8.10;7.80;;;;;;;10.03;98.75;92778.47;5131065;28;20211;-77
2022/10/03 01:16:13;;;;;;;9.03;8.53;;;;;;;10.05;99.18;92780.78;5132151;27;20200;-77
2022/10/03 01:19:10;;;;;;;8.43;8.13;;;;;;;10.11;98.61;92790.97;5135731;27;20257;-77
2022/10/03 01:21:47;;;;;;;8.97;8.37;;;;;;;9.98;99.14;92783.69;5131519;28;20196;-77
2022/10/03 01:24:15;;;;;;;8.83;8.43;;;;;;;10.05;98.96;92789.41;5127607;28;20618;-77
2022/10/03 01:26:59;;;;;;;8.60;8.30;;;;;;;10.05;99.23;92786.00;5130299;28;20184;-77
2022/10/03 01:32:29;;;;;;;8.37;7.90;;;;;;;9.98;99.46;92778.50;5129461;27;20234;-77
2022/10/03 01:35:05;;;;;;;8.97;8.63;;;;;;;9.91;99.43;92762.38;5130736;28;20179;-77
2022/10/03 01:37:36;;;;;;;8.40;8.10;;;;;;;9.88;100.00;92768.13;5130440;28;21204;-77
2022/10/03 01:40:39;;;;;;;7.97;7.60;;;;;;;9.96;100.00;92791.00;5129981;28;20187;-77
2022/10/03 01:43:23;;;;;;;8.93;8.53;;;;;;;9.95;100.00;92771.22;5129303;28;20223;-77
2022/10/03 01:46:20;;;;;;;8.47;8.17;;;;;;;9.90;100.00;92776.44;5127025;28;20279;-77
2022/10/03 01:49:00;;;;;;;8.67;8.37;;;;;;;9.98;100.00;92782.94;5146452;27;20243;-77
2022/10/03 01:51:50;;;;;;;8.20;7.90;;;;;;;9.78;100.00;92778.59;5131472;28;20191;-77
2022/10/03 01:54:33;;;;;;;8.63;8.23;;;;;;;10.00;100.00;92771.19;5130518;28;20188;-77
2022/10/03 01:57:10;;;;;;;8.40;8.00;;;;;;;9.90;100.00;92771.22;5131169;27;20264;-77
2022/10/03 01:59:39;;;;;;;8.80;8.13;;;;;;;9.95;100.00;92783.44;5131320;28;20299;-77
2022/10/03 02:02:21;;;;;;;9.07;8.67;;;;;;;9.90;99.49;92752.97;5127682;28;21318;-80
2022/10/03 02:04:53;;;;;;;8.43;8.13;;;;;;;9.87;100.00;92774.38;5129145;28;20191;-77
2022/10/03 02:07:28;;;;;;;9.50;8.70;;;;;;;9.74;100.00;92770.53;5128397;28;20235;-77
2022/10/03 02:10:18;;;;;;;9.27;8.87;;;;;;;9.73;100.00;92773.41;5130403;28;20205;-77
2022/10/03 02:13:08;;;;;;;9.30;8.97;;;;;;;9.77;100.00;92766.63;5129342;28;20234;-77
2022/10/03 02:15:48;;;;;;;8.63;8.33;;;;;;;9.71;100.00;92763.25;5131073;28;20183;-77
2022/10/03 02:18:16;;;;;;;9.07;8.67;;;;;;;9.80;100.00;92773.91;5127131;27;20284;-77
2022/10/03 02:20:44;;;;;;;9.07;8.67;;;;;;;9.83;100.00;92749.91;5131324;28;20200;-77
2022/10/03 02:23:30;;;;;;;8.47;8.10;;;;;;;9.75;100.00;92768.72;5129399;27;20240;-77
2022/10/03 02:26:04;;;;;;;8.73;8.33;;;;;;;9.88;100.00;92768.13;5130735;28;20176;-77
2022/10/03 02:28:39;;;;;;;8.80;8.50;;;;;;;9.95;100.00;92767.81;5129935;28;20210;-77
2022/10/03 02:31:31;;;;;;;9.50;8.73;;;;;;;9.91;100.00;92762.38;5129683;28;20178;-77
2022/10/03 02:34:30;;;;;;;9.03;8.73;;;;;;;10.03;100.00;92765.41;5105121;28;20230;-77
2022/10/03 02:37:14;;;;;;;8.77;8.30;;;;;;;10.10;99.59;92765.91;5129270;28;20260;-77
2022/10/03 02:40:04;;;;;;;9.30;8.87;;;;;;;10.13;99.56;92767.22;5127982;28;20211;-77
2022/10/03 02:42:39;;;;;;;8.90;8.60;;;;;;;9.98;100.00;92760.22;5129479;28;20239;-77
2022/10/03 02:45:26;;;;;;;8.97;8.50;;;;;;;10.07;100.00;92766.47;5130901;28;20179;-77
2022/10/03 02:48:25;;;;;;;8.77;8.47;;;;;;;10.19;100.00;92763.53;5129096;28;20317;-77
2022/10/03 02:51:21;;;;;;;8.83;8.43;;;;;;;10.30;99.07;92762.41;5130238;27;20195;-77
2022/10/03 02:54:00;;;;;;;9.77;9.27;;;;;;;10.29;99.75;92764.22;5128681;28;20223;-77
2022/10/03 02:56:53;;;;;;;8.77;8.47;;;;;;;10.23;100.00;92765.31;5129209;28;20268;-77
2022/10/03 02:59:53;;;;;;;9.27;8.57;;;;;;;10.27;99.72;92765.56;5129253;28;20262;-77
2022/10/03 03:02:31;;;;;;;7.80;7.37;;;;;;;10.24;100.00;92761.63;5128753;28;20241;-77
2022/10/03 03:05:24;;;;;;;9.60;9.20;;;;;;;10.35;100.00;92759.75;5130476;28;20198;-77
2022/10/03 03:08:17;;;;;;;8.33;7.93;;;;;;;10.45;99.54;92757.06;5129905;28;20227;-77
2022/10/03 03:11:20;;;;;;;8.73;8.43;;;;;;;10.40;99.81;92746.66;5129245;28;20206;-77
2022/10/03 03:14:17;;;;;;;8.73;8.33;;;;;;;10.31;100.00;92751.69;5129578;28;20223;-77
2022/10/03 03:16:56;;;;;;;8.70;8.30;;;;;;;10.20;100.00;92744.97;5128156;28;20224;-77
2022/10/03 03:19:40;;;;;;;8.53;8.13;;;;;;;10.34;100.00;92753.75;5128870;28;20221;-77
2022/10/03 03:22:19;;;;;;;8.87;8.47;;;;;;;10.34;100.00;92751.13;5128775;28;20244;-77
2022/10/03 03:24:53;;;;;;;9.70;9.10;;;;;;;10.31;100.00;92756.91;5129253;28;20187;-77
2022/10/03 03:28:00;;;;;;;10.30;9.70;;;;;;;10.31;100.00;92749.06;5129689;28;20215;-77
2022/10/03 03:30:58;;;;;;;8.83;8.37;;;;;;;10.32;100.00;92742.78;5126704;28;20191;-79
2022/10/03 03:33:29;;;;;;;8.83;8.33;;;;;;;10.32;100.00;92758.44;5103479;28;20250;-79
2022/10/03 03:36:27;;;;;;;8.73;8.27;;;;;;;10.04;100.00;92701.75;5129217;28;20179;-79
2022/10/03 03:39:37;;;;;;;9.10;8.60;;;;;;;10.17;100.00;92722.06;5129647;28;20993;-79
2022/10/03 03:42:18;;;;;;;8.67;8.23;;;;;;;10.20;100.00;92734.53;5123819;28;20287;-80
2022/10/03 03:45:11;;;;;;;9.17;8.67;;;;;;;10.16;100.00;92738.75;5127601;28;20203;-79
2022/10/03 03:47:53;;;;;;;8.30;8.00;;;;;;;10.11;100.00;92738.78;5128501;28;20277;-78
2022/10/03 03:50:34;;;;;;;8.50;8.00;;;;;;;10.16;100.00;92733.56;5128768;28;20195;-76
2022/10/03 03:53:21;;;;;;;9.53;9.13;;;;;;;10.13;100.00;92734.09;5126792;28;20219;-75
2022/10/03 03:56:05;;;;;;;8.73;8.33;;;;;;;10.16;100.00;92736.16;5125109;28;20206;-77
2022/10/03 03:58:39;;;;;;;8.37;7.97;;;;;;;10.05;100.00;92726.81;5125468;28;20227;-79
2022/10/03 04:01:26;;;;;;;8.83;8.53;;;;;;;10.23;100.00;92718.34;5126816;28;20222;-77
2022/10/03 04:04:06;;;;;;;9.00;8.60;;;;;;;10.20;100.00;92718.91;5125072;28;20235;-77
2022/10/03 04:06:45;;;;;;;9.87;9.40;;;;;;;10.10;100.00;92718.97;5126791;28;20978;-79
2022/10/03 04:09:28;;;;;;;8.90;8.60;;;;;;;9.91;100.00;92717.25;5127700;27;20179;-74
2022/10/03 04:12:14;;;;;;;9.07;8.67;;;;;;;9.91;100.00;92717.25;5126137;27;20239;-74
2022/10/03 04:14:48;;;;;;;8.57;8.27;;;;;;;9.97;100.00;92713.56;5128714;28;20228;-76
2022/10/03 04:20:43;;;;;;;8.63;8.13;;;;;;;10.15;100.00;92711.09;5128149;28;20195;-73
2022/10/03 04:23:32;;;;;;;9.87;8.17;;;;;;;9.86;100.00;92699.81;5126801;28;20235;-75
2022/10/03 04:26:20;;;;;;;8.27;7.97;;;;;;;10.04;100.00;92721.88;5127838;28;20199;-76
2022/10/03 04:29:10;;;;;;;8.47;7.87;;;;;;;10.05;100.00;92721.59;5128942;28;20250;-76
2022/10/03 04:32:08;;;;;;;9.53;9.13;;;;;;;10.19;100.00;92712.13;5131122;27;20231;-81
2022/10/03 04:34:45;;;;;;;10.43;9.63;;;;;;;10.32;100.00;92721.91;5130604;28;20195;-76
2022/10/03 04:37:19;;;;;;;9.00;8.50;;;;;;;10.48;100.00;92717.34;5132621;27;20250;-75
2022/10/03 04:40:16;;;;;;;9.10;8.63;;;;;;;10.58;100.00;92710.22;5131539;28;20212;-74
2022/10/03 04:42:54;;;;;;;10.30;9.80;;;;;;;10.63;100.00;92706.78;5129398;28;20236;-78
2022/10/03 04:45:39;;;;;;;9.87;8.93;;;;;;;10.71;100.00;92719.22;5130404;28;20180;-78
2022/10/03 04:48:27;;;;;;;8.70;8.37;;;;;;;10.80;100.00;92713.13;5130726;27;20220;-78
2022/10/03 04:51:07;;;;;;;9.50;9.10;;;;;;;10.47;100.00;92713.97;5130155;28;20237;-78
2022/10/03 04:54:14;;;;;;;9.07;8.57;;;;;;;10.58;100.00;92694.56;5130029;28;20261;-78
2022/10/03 04:56:48;;;;;;;9.70;9.13;;;;;;;10.19;100.00;92675.59;5131282;28;20238;-79
2022/10/03 05:00:01;;;;;;;10.30;9.47;;;;;;;10.69;100.00;92716.88;5129775;28;20231;-79
2022/10/03 05:02:46;;;;;;;9.53;8.83;;;;;;;10.63;100.00;92694.50;5123192;28;20223;-80
2022/10/03 05:05:26;;;;;;;12.30;11.60;;;;;;;10.95;100.00;92710.38;5131292;28;20199;-79
2022/10/03 05:08:22;;;;;;;9.57;9.07;;;;;;;10.71;100.00;92704.34;5129112;28;20294;-78
2022/10/03 05:11:04;;;;;;;9.53;9.03;;;;;;;10.93;100.00;92709.84;5129712;28;20783;-78
2022/10/03 05:13:38;;;;;;;8.93;8.47;;;;;;;10.83;100.00;92723.00;5130626;28;20245;-79
2022/10/03 05:16:23;;;;;;;9.10;8.70;;;;;;;11.08;99.87;92714.91;5131648;28;20197;-78
2022/10/03 05:18:54;;;;;;;9.60;9.00;;;;;;;11.33;99.35;92719.84;5129962;28;20215;-78
2022/10/03 05:21:35;;;;;;;9.63;9.10;;;;;;;11.42;98.76;92720.03;5130932;28;20273;-78
2022/10/03 05:24:44;;;;;;;10.70;9.60;;;;;;;11.34;98.23;92687.44;5129981;28;20218;-79
2022/10/03 05:27:34;;;;;;;10.07;9.57;;;;;;;11.72;96.93;92697.97;5130267;28;20246;-78
2022/10/03 05:30:06;;;;;;;10.13;9.33;;;;;;;11.74;96.21;92716.75;5129531;28;20204;-78
2022/10/03 05:32:53;;;;;;;9.33;8.80;;;;;;;11.84;95.39;92716.63;5131574;28;20227;-81
2022/10/03 05:35:37;;;;;;;9.47;8.97;;;;;;;11.78;94.23;92713.28;5130664;27;20220;-78
2022/10/03 05:38:15;;;;;;;8.63;8.23;;;;;;;11.71;95.66;92706.84;5129428;28;20231;-78
2022/10/03 05:40:47;;;;;;;10.07;9.37;;;;;;;11.72;93.46;92690.09;5130259;28;20194;-78
2022/10/03 05:43:35;;;;;;;10.20;9.67;;;;;;;11.87;92.63;92688.06;5129211;28;20224;-78
2022/10/03 05:46:09;;;;;;;10.13;9.43;;;;;;;12.06;92.90;92688.03;5129680;27;20193;-78
2022/10/03 05:49:15;;;;;;;9.90;9.30;;;;;;;12.20;92.51;92691.47;5129810;28;20237;-78
2022/10/03 05:51:40;;;;;;;9.30;8.80;;;;;;;12.66;89.10;92687.81;5130771;28;20207;-78
2022/10/03 05:54:24;;;;;;;10.27;9.57;;;;;;;12.69;89.61;92682.00;5130063;28;20188;-78
2022/10/03 05:57:13;;;;;;;8.90;8.43;;;;;;;12.68;89.48;92646.38;5128340;28;20191;-79
2022/10/03 06:00:07;;;;;;;10.67;9.20;;;;;;;12.80;91.02;92682.59;5130994;28;20231;-78
2022/10/03 06:03:04;;;;;;;10.97;9.77;;;;;;;13.02;89.61;92689.81;5146034;27;20256;-78
2022/10/03 06:05:55;;;;;;;10.87;9.97;;;;;;;12.68;89.41;92700.63;5131029;27;20220;-78
2022/10/03 06:08:40;;;;;;;11.47;10.57;;;;;;;12.73;91.45;92724.13;5128734;28;20256;-78
2022/10/03 06:11:30;;;;;;;11.77;10.53;;;;;;;12.93;88.41;92723.78;5129872;28;20225;-78
2022/10/03 06:14:27;;;;;;;10.67;9.83;;;;;;;12.52;88.41;92723.69;5129198;28;20213;-79
2022/10/03 06:17:32;;;;;;;10.93;10.33;;;;;;;12.92;86.99;92725.59;5127262;28;20231;-78
2022/10/03 06:20:21;;;;;;;11.70;10.60;;;;;;;12.84;88.63;92736.00;5120408;28;20211;-78
2022/10/03 06:23:12;;;;;;;12.80;11.50;;;;;;;12.82;87.69;92748.59;5129187;28;20243;-78
2022/10/03 06:26:00;;;;;;;11.23;10.33;;;;;;;12.82;89.43;92723.16;5130805;28;20187;-78
2022/10/03 06:29:00;;;;;;;12.10;10.67;;;;;;;12.57;90.56;92735.91;5139460;27;20231;-78
2022/10/03 06:31:53;;;;;;;11.27;10.40;;;;;;;13.22;88.36;92719.06;5130101;28;20215;-78
2022/10/03 06:34:43;;;;;;;11.60;10.60;;;;;;;12.82;86.13;92731.00;5128825;28;20220;-78
2022/10/03 06:37:26;;;;;;;10.63;9.87;;;;;;;13.50;85.81;92728.47;5129924;28;20239;-78
2022/10/03 06:40:14;;;;;;;10.90;10.03;;;;;;;12.96;89.25;92731.06;5126005;28;20184;-78
2022/10/03 06:42:57;;;;;;;11.83;11.03;;;;;;;13.42;85.95;92731.75;5127863;28;20239;-78
2022/10/03 06:45:26;;;;;;;11.73;10.50;;;;;;;13.47;85.82;92729.06;5128993;28;20226;-78
2022/10/03 06:48:00;;;;;;;11.77;10.87;;;;;;;13.92;83.52;92740.44;5127954;28;20227;-78
2022/10/03 06:50:58;;;;;;;11.53;10.83;;;;;;;13.87;81.15;92722.97;5129103;28;20186;-77
2022/10/03 06:53:35;;;;;;;11.43;10.43;;;;;;;13.80;82.97;92738.34;5094457;28;20287;-78
2022/10/03 06:56:18;;;;;;;11.77;11.03;;;;;;;13.67;83.50;92748.84;5129933;28;20190;-78
2022/10/03 06:59:05;;;;;;;10.47;9.77;;;;;;;13.44;82.58;92750.63;5127710;28;20250;-78
2022/10/03 07:02:05;;;;;;;11.37;10.30;;;;;;;13.66;82.02;92757.78;5128053;28;20211;-79
2022/10/03 07:04:39;;;;;;;11.17;10.37;;;;;;;13.47;82.75;92757.91;5129777;28;20222;-78
2022/10/03 07:07:31;;;;;;;11.43;10.60;;;;;;;13.51;82.34;92766.72;5128623;28;20223;-78
2022/10/03 07:10:08;;;;;;;11.57;10.77;;;;;;;13.46;83.81;92769.47;5128756;28;20197;-79
2022/10/03 07:13:14;;;;;;;11.77;10.73;;;;;;;13.28;83.23;92762.47;5127364;28;20223;-78
2022/10/03 07:16:23;;;;;;;10.87;10.03;;;;;;;13.35;82.16;92788.31;5128185;28;20217;-71
2022/10/03 07:18:48;;;;;;;10.43;9.70;;;;;;;12.83;86.60;92803.31;5125437;27;20234;-73
2022/10/03 07:21:40;;;;;;;11.10;10.40;;;;;;;12.86;88.43;92813.22;5128489;28;20195;-73
2022/10/03 07:24:14;;;;;;;12.00;11.23;;;;;;;12.92;87.56;92806.84;5128334;28;20215;-74
2022/10/03 07:26:48;;;;;;;11.33;10.63;;;;;;;12.46;91.63;92828.78;5127920;28;20208;-73
2022/10/03 07:29:13;;;;;;;13.00;11.77;;;;;;;12.41;93.55;92831.47;5128778;28;20186;-74
2022/10/03 07:31:54;;;;;;;13.10;12.00;;;;;;;12.01;95.76;92839.88;5128287;28;20179;-74
2022/10/03 07:34:38;;;;;;;13.87;12.53;;;;;;;11.69;97.29;92835.28;5128079;28;20332;-73
2022/10/03 07:40:05;;;;;;;13.47;11.90;;;;;;;11.52;98.61;92834.16;5128158;28;20264;-73
2022/10/03 07:42:33;;;;;;;13.53;12.43;;;;;;;11.71;100.00;92848.06;5126622;28;20234;-73
2022/10/03 07:45:29;;;;;;;20.80;13.33;;;;;;;11.83;99.50;92845.84;5127986;28;20971;-72
2022/10/03 07:48:12;;;;;;;20.57;13.87;;;;;;;11.76;100.00;92837.56;5127849;28;20219;-71
2022/10/03 07:50:40;;;;;;;15.73;14.17;;;;;;;11.82;100.00;92839.06;5127174;28;20191;-73
2022/10/03 07:53:27;;;;;;;16.53;14.17;;;;;;;11.73;100.00;92835.50;5128443;28;20230;-73
2022/10/03 07:56:20;;;;;;;13.50;12.07;;;;;;;11.92;100.00;92828.47;5128540;28;20176;-72
2022/10/03 07:58:58;;;;;;;15.33;14.03;;;;;;;12.16;100.00;92847.50;5127371;28;20231;-70
2022/10/03 08:01:29;;;;;;;16.80;15.10;;;;;;;12.04;100.00;92847.16;5128027;28;20188;-71
2022/10/03 08:04:31;;;;;;;15.60;14.13;;;;;;;12.19;100.00;92839.09;5126610;28;20310;-71
2022/10/03 08:07:15;;;;;;;16.17;14.17;;;;;;;11.88;100.00;92833.47;5135359;27;21678;-72
2022/10/03 08:10:00;;;;;;;15.63;14.33;;;;;;;12.12;100.00;92834.22;5134456;28;20213;-73
2022/10/03 08:12:56;;;;;;;14.20;12.90;;;;;;;12.33;100.00;92834.72;5134198;27;20230;-72
2022/10/03 08:15:42;;;;;;;13.20;12.20;;;;;;;12.27;100.00;92835.84;5135078;28;20199;-74
2022/10/03 08:18:13;;;;;;;10.43;9.40;;;;;;;12.59;100.00;92835.94;5132301;27;20219;-76
2022/10/03 08:20:47;;;;;;;9.87;9.37;;;;;;;12.51;100.00;92832.09;5135108;28;20176;-74
2022/10/03 08:23:43;;;;;;;11.13;10.23;;;;;;;12.81;100.00;92842.13;5134024;27;20217;-75
2022/10/03 08:26:33;;;;;;;9.63;9.13;;;;;;;12.77;100.00;92837.75;5136350;28;20242;-75
2022/10/03 08:29:19;;;;;;;10.37;9.80;;;;;;;12.80;100.00;92845.03;5133367;28;20280;-74
2022/10/03 08:32:04;;;;;;;11.57;10.67;;;;;;;12.96;100.00;92843.72;5133980;27;20194;-74
2022/10/03 08:34:44;;;;;;;10.93;10.33;;;;;;;12.93;100.00;92854.78;5134832;28;20282;-74
2022/10/03 08:37:18;;;;;;;11.73;10.97;;;;;;;12.84;100.00;92852.03;5133941;27;20233;-75
2022/10/03 08:40:10;;;;;;;10.97;10.17;;;;;;;13.03;100.00;92854.63;5131864;28;20207;-73
2022/10/03 08:42:56;;;;;;;11.63;10.63;;;;;;;13.09;99.14;92852.72;5132184;27;20223;-77
2022/10/03 08:45:31;;;;;;;9.97;9.37;;;;;;;13.24;97.63;92850.63;5134427;28;20194;-74
2022/10/03 08:48:19;;;;;;;9.77;9.27;;;;;;;13.30;97.71;92854.72;5133791;27;20226;-73
2022/10/03 08:50:47;;;;;;;11.73;11.13;;;;;;;13.35;98.21;92859.88;5131194;28;20333;-74
2022/10/03 08:53:22;;;;;;;11.67;10.90;;;;;;;13.52;97.18;92856.69;5131601;27;20247;-73
2022/10/03 08:55:54;;;;;;;10.03;9.43;;;;;;;13.70;94.69;92855.81;5131527;28;20193;-74
2022/10/03 08:58:23;;;;;;;10.33;9.67;;;;;;;13.76;93.15;92865.94;5134165;27;20255;-77
2022/10/03 09:01:00;;;;;;;10.00;9.50;;;;;;;13.75;92.89;92840.78;5133141;27;20238;-81
2022/10/03 09:03:41;;;;;;;10.00;9.30;;;;;;;14.31;89.70;92854.38;5133264;27;20229;-82
2022/10/03 09:06:28;;;;;;;9.80;9.10;;;;;;;14.73;89.12;92865.53;5132841;28;20183;-82
2022/10/03 09:09:24;;;;;;;9.40;8.80;;;;;;;15.00;86.85;92860.19;5133208;28;20293;-83
2022/10/03 09:12:04;;;;;;;9.57;9.17;;;;;;;15.01;84.10;92846.75;5134098;27;20191;-82
2022/10/03 09:14:58;;;;;;;9.77;9.27;;;;;;;14.57;86.27;92827.56;5133432;28;20210;-76
2022/10/03 09:17:46;;;;;;;10.43;9.53;;;;;;;15.23;85.26;92864.38;5130163;27;20207;-77
2022/10/03 09:20:26;;;;;;;11.20;10.40;;;;;;;15.36;84.15;92868.81;5126396;27;20195;-87
2022/10/03 09:23:13;;;;;;;10.27;9.43;;;;;;;15.28;82.32;92861.63;5128267;27;20298;-87
2022/10/03 09:25:57;;;;;;;9.43;9.00;;;;;;;15.51;79.33;92855.28;5130449;28;20195;-82
2022/10/03 09:28:49;;;;;;;8.97;8.60;;;;;;;15.47;78.19;92833.28;5128801;28;20256;-89
2022/10/03 09:31:18;;;;;;;9.10;8.60;;;;;;;15.24;78.12;92848.28;5128476;28;20247;-86
2022/10/03 09:34:14;;;;;;;9.43;8.90;;;;;;;14.96;79.44;92854.75;5130654;28;20242;-86
2022/10/03 09:37:30;;;;;;;9.80;9.37;;;;;;;14.91;80.03;92851.47;5131590;28;20199;-89
2022/10/03 09:40:20;;;;;;;9.10;8.70;;;;;;;14.36;80.48;92846.41;5105883;28;20215;-84
2022/10/03 09:43:08;;;;;;;9.27;8.70;;;;;;;14.85;79.51;92848.19;5127224;27;20799;-88
2022/10/03 09:45:40;;;;;;;9.00;8.60;;;;;;;14.68;78.80;92848.03;5098381;28;20210;-88
2022/10/03 09:48:25;;;;;;;8.50;8.10;;;;;;;15.04;78.08;92855.88;5129888;27;20223;-86
2022/10/03 09:50:59;;;;;;;9.17;8.77;;;;;;;15.30;76.62;92847.09;5130040;28;20190;-89
2022/10/03 09:53:46;;;;;;;9.37;8.77;;;;;;;15.46;78.21;92852.78;5129386;28;20225;-87
2022/10/03 09:56:24;;;;;;;9.10;8.70;;;;;;;14.80;76.57;92852.78;5129674;28;20191;-87
2022/10/03 09:59:04;;;;;;;9.60;9.20;;;;;;;14.71;78.30;92851.94;5130266;28;20230;-86
2022/10/03 10:01:37;;;;;;;8.80;8.40;;;;;;;14.45;78.89;92839.38;5130891;28;20191;-88
2022/10/03 10:04:24;;;;;;;9.23;8.70;;;;;;;14.85;79.90;92842.91;5130171;28;20211;-87
2022/10/03 10:07:27;;;;;;;9.43;9.03;;;;;;;15.06;80.69;92845.84;5129443;28;20183;-91
2022/10/03 10:10:15;;;;;;;9.93;9.33;;;;;;;15.42;82.29;92831.56;5128309;28;20192;-82
2022/10/03 10:13:02;;;;;;;9.10;8.60;;;;;;;15.74;77.97;92841.78;5130161;27;20241;-81
2022/10/03 10:15:58;;;;;;;8.47;7.97;;;;;;;15.42;75.28;92847.34;5129654;28;20187;-77
2022/10/03 10:18:46;;;;;;;8.93;8.53;;;;;;;15.76;75.14;92838.84;5129342;28;20215;-77
2022/10/03 10:21:24;;;;;;;9.80;9.23;;;;;;;15.60;76.21;92840.31;5127143;28;20247;-78
2022/10/03 10:24:12;;;;;;;8.93;8.53;;;;;;;15.16;77.25;92840.38;5128101;28;20242;-78
2022/10/03 10:26:47;;;;;;;9.27;8.87;;;;;;;15.16;76.80;92843.75;5130182;28;20179;-77
2022/10/03 10:29:32;;;;;;;9.50;9.00;;;;;;;15.00;77.58;92854.94;5129322;28;20246;-77
2022/10/03 10:32:06;;;;;;;8.87;8.40;;;;;;;15.19;78.38;92861.56;5130059;28;20272;-77
2022/10/03 10:34:50;;;;;;;9.87;9.37;;;;;;;14.82;72.03;92848.03;5127725;28;20232;-82
2022/10/03 10:37:43;;;;;;;9.53;9.13;;;;;;;14.86;69.23;92843.72;5129759;28;20264;-82
2022/10/03 10:40:42;;;;;;;9.13;8.83;;;;;;;15.04;69.01;92832.22;5128221;28;20195;-82
2022/10/03 10:43:46;;;;;;;9.70;8.83;;;;;;;15.15;68.00;92846.69;5126440;28;20215;-81
2022/10/03 10:46:53;;;;;;;8.53;8.20;;;;;;;14.87;68.04;92856.56;5125902;28;20187;-80
2022/10/03 10:49:49;;;;;;;8.47;8.17;;;;;;;15.22;69.09;92839.16;5040353;28;20218;-79
2022/10/03 10:52:24;;;;;;;8.17;7.87;;;;;;;15.12;66.69;92852.53;5127796;28;21167;-81
2022/10/03 10:55:02;;;;;;;8.47;8.17;;;;;;;15.22;66.27;92863.59;5127858;28;20659;-79
2022/10/03 10:57:50;;;;;;;8.23;7.93;;;;;;;15.04;64.78;92854.03;5127372;28;20228;-79
2022/10/03 11:00:25;;;;;;;8.37;8.00;;;;;;;14.93;65.73;92846.69;5127059;28;20241;-80
2022/10/03 11:03:27;;;;;;;8.87;8.47;;;;;;;14.96;66.33;92860.00;5127633;28;20220;-81
2022/10/03 11:05:59;;;;;;;9.27;8.47;;;;;;;15.16;67.53;92861.41;5125499;28;20259;-81
2022/10/03 11:08:50;;;;;;;8.40;8.10;;;;;;;14.68;68.97;92853.31;5125905;28;20223;-81
2022/10/03 11:11:40;;;;;;;8.83;8.43;;;;;;;14.79;68.17;92849.38;5118522;28;20206;-81
2022/10/03 11:14:18;;;;;;;9.47;9.00;;;;;;;15.21;68.57;92842.84;5128012;28;20200;-82
2022/10/03 11:16:53;;;;;;;9.10;8.70;;;;;;;15.19;68.25;92842.41;5126899;28;20199;-84
2022/10/03 11:19:47;;;;;;;9.57;9.17;;;;;;;15.35;68.00;92840.91;5128796;28;20209;-76
2022/10/03 11:22:31;;;;;;;8.80;8.40;;;;;;;15.33;68.42;92859.63;5126985;28;20234;-79
2022/10/03 11:25:30;;;;;;;9.27;8.87;;;;;;;15.09;69.37;92858.41;5128352;28;20198;-74
2022/10/03 11:28:30;;;;;;;9.57;9.17;;;;;;;14.58;72.16;92853.53;5125609;28;20242;-78
2022/10/03 11:31:33;;;;;;;8.37;7.93;;;;;;;14.72;72.08;92864.78;5127047;28;20210;-80
2022/10/03 11:34:26;;;;;;;9.20;8.80;;;;;;;14.38;72.70;92867.88;5127127;28;20215;-81
2022/10/03 11:37:08;;;;;;;10.50;9.97;;;;;;;14.39;73.62;92848.44;5125643;27;20238;-81
2022/10/03 11:39:56;;;;;;;9.37;8.97;;;;;;;14.48;71.10;92861.63;5126299;28;20249;-84
2022/10/03 11:42:26;;;;;;;9.77;9.17;;;;;;;14.73;72.10;92870.81;5126419;27;20227;-78
2022/10/03 11:44:56;;;;;;;8.83;8.43;;;;;;;14.68;68.78;92868.31;5127445;28;20187;-82
2022/10/03 11:47:41;;;;;;;12.27;11.30;;;;;;;14.77;68.80;92856.00;5119185;28;21294;-83
2022/10/03 11:50:31;;;;;;;9.67;9.00;;;;;;;14.90;67.24;92863.06;5124381;28;20187;-81
2022/10/03 11:52:57;;;;;;;10.80;10.10;;;;;;;14.39;67.76;92853.69;5125230;28;20302;-84
2022/10/03 11:55:42;;;;;;;10.70;10.17;;;;;;;14.37;66.69;92861.06;5126054;28;20195;-87
2022/10/03 11:58:23;;;;;;;10.27;9.77;;;;;;;14.51;68.43;92861.03;5122799;28;20230;-83
2022/10/03 12:01:02;;;;;;;10.00;9.50;;;;;;;14.61;66.20;92870.56;5126247;28;20225;-81
2022/10/03 12:03:34;;;;;;;9.43;8.93;;;;;;;14.61;64.53;92852.94;5126992;28;20226;-82
2022/10/03 12:09:02;;;;;;;10.10;9.60;;;;;;;14.94;65.33;92864.03;5126949;28;20241;-82
2022/10/03 12:12:01;;;;;;;10.43;9.73;;;;;;;14.98;65.15;92859.72;5127394;28;20194;-82
2022/10/03 12:14:37;;;;;;;9.90;9.37;;;;;;;14.84;64.04;92866.88;5101484;28;20223;-76
2022/10/03 12:17:21;;;;;;;10.40;9.80;;;;;;;14.61;66.90;92852.94;5126756;28;20221;-75
2022/10/03 12:20:05;;;;;;;10.23;9.73;;;;;;;14.45;67.10;92854.34;5143626;28;20211;-78
2022/10/03 12:22:45;;;;;;;10.30;9.80;;;;;;;14.37;69.92;92840.06;5127262;27;20238;-77
2022/10/03 12:25:39;;;;;;;10.03;9.43;;;;;;;14.57;68.39;92832.81;5127647;28;20193;-77
2022/10/03 12:28:10;;;;;;;10.80;10.20;;;;;;;14.66;68.06;92844.16;5122187;28;20236;-79
2022/10/03 12:30:54;;;;;;;10.40;9.80;;;;;;;14.65;69.56;92842.59;5128162;28;20207;-78
2022/10/03 12:33:41;;;;;;;9.73;9.23;;;;;;;14.61;69.52;92850.31;5127208;28;20223;-78
2022/10/03 12:36:14;;;;;;;11.33;10.70;;;;;;;14.44;66.34;92831.78;5125014;28;20172;-79
2022/10/03 12:38:55;;;;;;;9.50;9.00;;;;;;;14.55;64.08;92837.59;5125721;28;20294;-79
2022/10/03 12:41:32;;;;;;;10.33;9.73;;;;;;;14.68;64.89;92823.63;5125401;28;20203;-78
2022/10/03 12:44:07;;;;;;;10.87;10.17;;;;;;;14.74;62.55;92838.22;5126885;28;20207;-78
2022/10/03 12:47:00;;;;;;;10.87;10.03;;;;;;;14.79;62.48;92832.81;5125582;28;20190;-77
2022/10/03 12:50:00;;;;;;;10.63;10.13;;;;;;;14.59;61.92;92838.53;5128332;28;20179;-79
2022/10/03 12:52:38;;;;;;;10.70;10.10;;;;;;;14.54;60.88;92830.78;5129501;28;20211;-78
2022/10/03 12:55:19;;;;;;;9.40;8.90;;;;;;;14.66;62.16;92846.81;5132004;28;20188;-78
2022/10/03 12:57:53;;;;;;;9.13;8.63;;;;;;;14.66;62.99;92828.41;5130838;28;20223;-78
2022/10/03 13:00:31;;;;;;;11.30;10.70;;;;;;;14.69;62.30;92860.13;5131322;28;20241;-78